createdAt,value
2018-02-16T00:02:23.107Z,26.27
2018-02-16T00:04:51.468Z,23.57
2018-02-16T00:07:19.860Z,24.20
2018-02-16T00:09:48.230Z,24.20
2018-02-16T00:12:15.874Z,23.87
2018-02-16T00:14:44.390Z,24.00
2018-02-16T00:17:12.522Z,24.67
2018-02-16T00:19:41.030Z,25.60
2018-02-16T00:22:09.414Z,23.90
2018-02-16T00:24:37.035Z,21.33
2018-02-16T00:27:05.560Z,23.93
2018-02-16T00:29:33.918Z,25.23
2018-02-16T00:32:01.495Z,24.70
2018-02-16T00:34:29.923Z,25.93
2018-02-16T00:36:58.389Z,22.77
2018-02-16T00:39:27.002Z,24.30
2018-02-16T00:41:55.348Z,23.30
2018-02-16T00:44:23.754Z,23.73
2018-02-16T00:46:51.334Z,25.00
2018-02-16T00:49:18.920Z,23.90
2018-02-16T00:51:47.274Z,23.73
2018-02-16T00:54:15.637Z,22.93
2018-02-16T00:56:44.117Z,22.63
2018-02-16T00:59:12.640Z,25.80
2018-02-16T01:01:40.998Z,23.40
2018-02-16T01:04:08.620Z,24.63
2018-02-16T01:06:37.138Z,24.27
2018-02-16T01:09:04.761Z,23.40
2018-02-16T01:11:33.181Z,22.97
2018-02-16T01:14:01.526Z,21.63
2018-02-16T01:16:29.103Z,23.53
2018-02-16T01:18:56.677Z,21.50
2018-02-16T01:21:24.287Z,21.43
2018-02-16T01:23:51.938Z,23.00
2018-02-16T01:26:20.270Z,24.47
2018-02-16T01:28:47.846Z,23.33
2018-02-16T01:31:16.399Z,21.03
2018-02-16T01:33:43.980Z,24.23
2018-02-16T01:36:12.392Z,23.77
2018-02-16T01:38:40.005Z,22.97
2018-02-16T01:41:07.589Z,23.53
2018-02-16T01:43:35.207Z,22.93
2018-02-16T01:46:03.621Z,24.43
2018-02-16T01:48:31.243Z,23.50
2018-02-16T01:50:58.818Z,24.10
2018-02-16T01:53:27.311Z,24.07
2018-02-16T01:55:55.703Z,23.97
2018-02-16T01:58:24.076Z,24.63
2018-02-16T02:00:51.654Z,25.63
2018-02-16T02:03:19.967Z,23.50
2018-02-16T02:05:48.338Z,25.13
2018-02-16T02:08:15.916Z,22.50
2018-02-16T02:10:44.328Z,28.20
2018-02-16T02:13:11.907Z,23.67
2018-02-16T02:15:40.226Z,26.17
2018-02-16T02:18:07.806Z,25.27
2018-02-16T02:20:36.336Z,27.93
2018-02-16T02:23:04.719Z,24.73
2018-02-16T02:25:32.294Z,25.77
2018-02-16T02:27:59.914Z,23.30
2018-02-16T02:30:27.499Z,25.00
2018-02-16T02:32:55.083Z,27.57
2018-02-16T02:35:22.697Z,28.03
2018-02-16T02:37:50.277Z,29.50
2018-02-16T02:40:17.855Z,26.80
2018-02-16T02:42:45.454Z,28.20
2018-02-16T02:45:13.778Z,27.20
2018-02-16T02:47:41.356Z,25.80
2018-02-16T02:50:08.935Z,28.07
2018-02-16T02:52:36.551Z,26.23
2018-02-16T02:55:04.133Z,25.73
2018-02-16T02:57:31.715Z,24.30
2018-02-16T02:59:59.295Z,26.43
2018-02-16T03:02:26.959Z,23.73
2018-02-16T03:04:54.542Z,27.83
2018-02-16T03:07:22.119Z,25.20
2018-02-16T03:09:49.698Z,26.07
2018-02-16T03:12:17.274Z,26.90
2018-02-16T03:14:45.778Z,24.63
2018-02-16T03:17:14.174Z,25.80
2018-02-16T03:19:41.754Z,27.47
2018-02-16T03:22:10.235Z,29.50
2018-02-16T03:24:38.791Z,27.03
2018-02-16T03:27:06.372Z,28.40
2018-02-16T03:29:33.950Z,29.05
2018-02-16T03:32:02.290Z,27.80
2018-02-16T03:34:30.665Z,27.77
2018-02-16T03:36:58.288Z,26.07
2018-02-16T03:39:25.862Z,26.77
2018-02-16T03:41:54.338Z,27.13
2018-02-16T03:44:22.609Z,25.50
2018-02-16T03:46:50.191Z,27.60
2018-02-16T03:49:18.545Z,27.00
2018-02-16T03:51:46.906Z,27.03
2018-02-16T03:54:14.518Z,26.07
2018-02-16T03:56:42.951Z,24.20
2018-02-16T03:59:10.528Z,26.00
2018-02-16T04:01:38.139Z,26.97
2018-02-16T04:04:06.654Z,25.53
2018-02-16T04:06:34.298Z,25.30
2018-02-16T04:09:01.911Z,32.63
2018-02-16T04:11:29.486Z,29.47
2018-02-16T04:13:57.060Z,27.60
2018-02-16T04:16:25.339Z,28.83
2018-02-16T04:18:53.743Z,30.97
2018-02-16T04:21:22.018Z,28.73
2018-02-16T04:23:50.419Z,26.30
2018-02-16T04:26:18.707Z,26.77
2018-02-16T04:28:47.150Z,29.37
2018-02-16T04:31:14.730Z,27.60
2018-02-16T04:33:42.346Z,32.20
2018-02-16T04:36:09.925Z,32.87
2018-02-16T04:38:37.506Z,27.73
2018-02-16T04:41:05.803Z,30.07
2018-02-16T04:43:34.174Z,28.80
2018-02-16T04:46:01.804Z,31.30
2018-02-16T04:48:30.158Z,28.67
2018-02-16T04:50:57.800Z,30.30
2018-02-16T04:53:26.327Z,28.40
2018-02-16T04:55:54.760Z,30.10
2018-02-16T04:58:22.338Z,32.33
2018-02-16T05:00:50.749Z,29.80
2018-02-16T05:03:19.241Z,29.67
2018-02-16T05:05:47.610Z,31.07
2018-02-16T05:08:15.971Z,31.50
2018-02-16T05:10:44.339Z,32.22
2018-02-16T05:13:12.042Z,34.27
2018-02-16T05:15:40.699Z,30.10
2018-02-16T05:18:08.309Z,30.10
2018-02-16T05:20:35.886Z,30.90
2018-02-16T05:23:03.499Z,31.27
2018-02-16T05:25:31.078Z,29.70
2018-02-16T05:27:59.502Z,32.70
2018-02-16T05:30:27.878Z,30.53
2018-02-16T05:32:55.496Z,29.80
2018-02-16T05:35:23.153Z,29.80
2018-02-16T05:37:50.768Z,31.97
2018-02-16T05:40:19.195Z,35.27
2018-02-16T05:42:47.610Z,33.07
2018-02-16T05:45:16.194Z,36.23
2018-02-16T05:47:43.819Z,32.27
2018-02-16T05:50:11.458Z,31.00
2018-02-16T05:52:39.040Z,32.27
2018-02-16T05:55:06.620Z,34.57
2018-02-16T05:57:34.204Z,29.43
2018-02-16T06:00:02.489Z,32.93
2018-02-16T06:02:30.070Z,31.47
2018-02-16T06:04:57.730Z,31.80
2018-02-16T06:07:25.307Z,31.03
2018-02-16T06:09:52.994Z,33.23
2018-02-16T06:12:21.515Z,32.80
2018-02-16T06:14:49.939Z,35.13
2018-02-16T06:17:17.523Z,35.20
2018-02-16T06:19:45.098Z,35.97
2018-02-16T06:22:12.723Z,38.87
2018-02-16T06:24:40.308Z,35.93
2018-02-16T06:27:07.915Z,36.13
2018-02-16T06:29:35.489Z,34.10
2018-02-16T06:32:03.074Z,37.37
2018-02-16T06:34:30.687Z,36.43
2018-02-16T06:36:58.274Z,34.80
2018-02-16T06:39:25.959Z,34.03
2018-02-16T06:41:53.541Z,32.97
2018-02-16T06:44:21.158Z,68.60
2018-02-16T06:46:48.736Z,36.80
2018-02-16T06:49:16.355Z,36.63
2018-02-16T06:51:44.177Z,34.10
2018-02-16T06:54:11.801Z,36.80
2018-02-16T06:56:39.383Z,34.10
2018-02-16T06:59:06.967Z,33.57
2018-02-16T07:01:34.590Z,35.50
2018-02-16T07:04:02.170Z,34.43
2018-02-16T07:06:29.791Z,30.83
2018-02-16T07:08:57.533Z,33.20
2018-02-16T07:11:26.043Z,31.43
2018-02-16T07:13:54.234Z,32.30
2018-02-16T07:16:21.851Z,32.20
2018-02-16T07:18:49.428Z,32.33
2018-02-16T07:21:17.028Z,33.80
2018-02-16T07:23:44.652Z,32.90
2018-02-16T07:26:12.279Z,31.63
2018-02-16T07:28:39.919Z,32.60
2018-02-16T07:31:07.499Z,31.60
2018-02-16T07:33:35.619Z,32.77
2018-02-16T07:36:03.245Z,31.70
2018-02-16T07:38:31.416Z,30.63
2018-02-16T07:40:59.154Z,29.87
2018-02-16T07:43:28.969Z,29.43
2018-02-16T07:45:57.724Z,27.37
2018-02-16T07:48:25.982Z,26.00
2018-02-16T07:50:55.297Z,29.90
2018-02-16T07:53:22.974Z,26.47
2018-02-16T07:55:50.556Z,28.23
2018-02-16T07:58:18.208Z,26.60
2018-02-16T08:00:45.859Z,25.43
2018-02-16T08:03:13.535Z,25.47
2018-02-16T08:05:41.155Z,25.53
2018-02-16T08:08:09.579Z,24.50
2018-02-16T08:10:37.930Z,20.97
2018-02-16T08:13:05.630Z,22.30
2018-02-16T08:15:34.661Z,21.57
2018-02-16T08:18:03.508Z,22.17
2018-02-16T08:20:31.870Z,19.27
2018-02-16T08:23:00.025Z,22.23
2018-02-16T08:25:28.079Z,21.20
2018-02-16T08:27:56.271Z,18.57
2018-02-16T08:30:23.942Z,20.73
2018-02-16T08:32:52.329Z,21.60
2018-02-16T08:35:19.912Z,20.13
2018-02-16T08:37:47.488Z,18.73
2018-02-16T08:40:16.032Z,18.40
2018-02-16T08:42:43.616Z,20.67
2018-02-16T08:45:11.238Z,16.17
2018-02-16T08:47:39.715Z,18.00
2018-02-16T08:50:07.298Z,16.73
2018-02-16T08:52:34.883Z,17.03
2018-02-16T08:55:02.520Z,15.90
2018-02-16T08:57:30.911Z,14.90
2018-02-16T08:59:59.365Z,15.63
2018-02-16T09:02:27.722Z,14.43
2018-02-16T09:04:55.352Z,14.93
2018-02-16T09:07:22.932Z,13.97
2018-02-16T09:09:50.510Z,14.60
2018-02-16T09:12:18.157Z,13.40
2018-02-16T09:14:45.775Z,12.97
2018-02-16T09:17:13.394Z,12.73
2018-02-16T09:19:41.890Z,12.33
2018-02-16T09:22:09.510Z,14.73
2018-02-16T09:24:37.100Z,11.07
2018-02-16T09:27:05.586Z,10.77
2018-02-16T09:29:33.233Z,10.50
2018-02-16T09:32:00.816Z,10.43
2018-02-16T09:34:29.398Z,12.10
2018-02-16T09:36:57.663Z,12.13
2018-02-16T09:39:26.608Z,10.53
2018-02-16T09:41:54.191Z,10.77
2018-02-16T09:44:21.782Z,10.90
2018-02-16T09:46:49.369Z,10.40
2018-02-16T09:49:16.959Z,9.23
2018-02-16T09:51:44.536Z,9.03
2018-02-16T09:54:12.111Z,8.20
2018-02-16T09:56:39.683Z,8.07
2018-02-16T09:59:07.256Z,8.63
2018-02-16T10:01:34.835Z,7.53
2018-02-16T10:04:02.412Z,8.17
2018-02-16T10:06:30.022Z,8.57
2018-02-16T10:08:57.600Z,8.93
2018-02-16T10:11:25.174Z,8.40
2018-02-16T10:13:53.372Z,6.53
2018-02-16T10:16:21.030Z,7.43
2018-02-16T10:18:48.594Z,6.90
2018-02-16T10:21:16.210Z,6.33
2018-02-16T10:23:43.866Z,6.37
2018-02-16T10:26:11.474Z,6.53
2018-02-16T10:28:39.138Z,6.60
2018-02-16T10:31:06.710Z,7.03
2018-02-16T10:33:34.326Z,6.20
2018-02-16T10:36:01.972Z,5.50
2018-02-16T10:38:30.491Z,5.83
2018-02-16T10:40:58.071Z,6.50
2018-02-16T10:43:25.692Z,5.93
2018-02-16T10:45:53.266Z,6.00
2018-02-16T10:48:20.846Z,6.40
2018-02-16T10:50:48.436Z,5.20
2018-02-16T10:53:16.007Z,5.63
2018-02-16T10:55:43.609Z,5.83
2018-02-16T10:58:11.202Z,5.47
2018-02-16T11:00:44.502Z,5.03
2018-02-16T11:03:17.786Z,6.00
2018-02-16T11:05:53.846Z,6.07
2018-02-16T11:08:27.243Z,5.67
2018-02-16T11:10:54.878Z,5.70
2018-02-16T11:13:22.454Z,5.53
2018-02-16T11:15:50.030Z,6.10
2018-02-16T11:18:17.664Z,6.67
2018-02-16T11:20:45.306Z,5.63
2018-02-16T11:23:12.882Z,6.40
2018-02-16T11:25:40.466Z,7.00
2018-02-16T11:28:08.937Z,6.87
2018-02-16T11:30:37.401Z,8.40
2018-02-16T11:33:04.981Z,6.67
2018-02-16T11:35:32.557Z,7.10
2018-02-16T11:38:00.144Z,6.87
2018-02-16T11:40:27.716Z,7.87
2018-02-16T11:42:55.296Z,8.40
2018-02-16T11:45:23.664Z,6.50
2018-02-16T11:47:51.238Z,8.10
2018-02-16T11:50:18.812Z,8.90
2018-02-16T11:52:46.493Z,9.40
2018-02-16T11:55:14.135Z,10.40
2018-02-16T11:57:41.708Z,9.30
2018-02-16T12:00:09.314Z,10.93
2018-02-16T12:02:36.890Z,10.13
2018-02-16T12:05:04.488Z,10.50
2018-02-16T12:07:32.062Z,8.97
2018-02-16T12:09:59.640Z,9.43
2018-02-16T12:12:27.218Z,8.93
2018-02-16T12:14:54.800Z,9.90
2018-02-16T12:17:22.381Z,9.60
2018-02-16T12:19:49.961Z,9.57
2018-02-16T12:22:17.598Z,9.87
2018-02-16T12:24:46.119Z,9.70
2018-02-16T12:27:13.691Z,9.60
2018-02-16T12:29:41.266Z,8.87
2018-02-16T12:32:08.847Z,9.13
2018-02-16T12:34:36.425Z,8.00
2018-02-16T12:37:04.031Z,8.50
2018-02-16T12:39:31.616Z,8.20
2018-02-16T12:41:59.204Z,7.97
2018-02-16T12:44:26.823Z,9.43
2018-02-16T12:46:54.403Z,9.30
2018-02-16T12:49:21.978Z,8.27
2018-02-16T12:51:49.558Z,6.93
2018-02-16T12:54:17.135Z,9.00
2018-02-16T12:56:44.710Z,8.50
2018-02-16T12:59:12.318Z,8.30
2018-02-16T13:01:39.898Z,9.20
2018-02-16T13:04:07.473Z,9.60
2018-02-16T13:06:35.999Z,8.93
2018-02-16T13:09:03.618Z,9.80
2018-02-16T13:11:31.194Z,10.00
2018-02-16T13:13:58.774Z,11.60
2018-02-16T13:16:26.355Z,8.50
2018-02-16T13:18:53.926Z,8.80
2018-02-16T13:21:21.544Z,8.17
2018-02-16T13:23:49.119Z,8.30
2018-02-16T13:26:16.723Z,9.07
2018-02-16T13:28:45.097Z,9.00
2018-02-16T13:31:12.723Z,7.90
2018-02-16T13:33:40.295Z,7.93
2018-02-16T13:36:07.883Z,8.63
2018-02-16T13:38:35.456Z,8.80
2018-02-16T13:41:03.031Z,7.93
2018-02-16T13:43:30.602Z,9.10
2018-02-16T13:45:58.179Z,8.20
2018-02-16T13:48:25.806Z,6.70
2018-02-16T13:50:53.381Z,8.20
2018-02-16T13:53:20.975Z,8.63
2018-02-16T13:55:48.562Z,8.83
2018-02-16T13:58:17.050Z,11.20
2018-02-16T14:00:44.630Z,8.13
2018-02-16T14:03:12.211Z,7.13
2018-02-16T14:05:39.786Z,7.07
2018-02-16T14:08:07.359Z,7.40
2018-02-16T14:10:34.975Z,8.60
2018-02-16T14:13:02.551Z,9.00
2018-02-16T14:15:30.127Z,8.17
2018-02-16T14:17:57.700Z,8.80
2018-02-16T14:20:25.273Z,8.50
2018-02-16T14:22:52.846Z,6.50
2018-02-16T14:25:20.419Z,9.23
2018-02-16T14:27:47.995Z,9.13
2018-02-16T14:30:15.587Z,7.50
2018-02-16T14:32:43.162Z,8.00
2018-02-16T14:35:10.730Z,8.43
2018-02-16T14:37:39.202Z,7.90
2018-02-16T14:40:06.830Z,7.87
2018-02-16T14:42:35.318Z,6.80
2018-02-16T14:45:03.549Z,6.53
2018-02-16T14:47:31.130Z,5.97
2018-02-16T14:49:59.403Z,5.50
2018-02-16T14:52:26.983Z,5.43
2018-02-16T14:54:54.630Z,6.40
2018-02-16T14:57:22.264Z,6.87
2018-02-16T14:59:49.846Z,6.70
2018-02-16T15:02:17.421Z,5.90
2018-02-16T15:04:45.002Z,6.43
2018-02-16T15:07:13.415Z,7.17
2018-02-16T15:09:41.779Z,5.70
2018-02-16T15:12:10.240Z,5.53
2018-02-16T15:14:37.814Z,5.00
2018-02-16T15:17:06.187Z,5.33
2018-02-16T15:19:34.643Z,6.20
2018-02-16T15:22:03.023Z,4.70
2018-02-16T15:24:31.421Z,4.77
2018-02-16T15:26:59.938Z,6.50
2018-02-16T15:29:27.509Z,5.87
2018-02-16T15:31:55.131Z,6.47
2018-02-16T15:34:23.652Z,4.97
2018-02-16T15:36:51.250Z,4.77
2018-02-16T15:39:19.639Z,5.23
2018-02-16T15:41:47.219Z,7.20
2018-02-16T15:44:15.719Z,5.53
2018-02-16T15:46:43.295Z,6.50
2018-02-16T15:49:10.884Z,6.00
2018-02-16T15:51:39.483Z,7.10
2018-02-16T15:54:07.095Z,5.90
2018-02-16T15:56:34.674Z,7.80
2018-02-16T15:59:02.287Z,7.70
2018-02-16T16:01:29.864Z,5.87
2018-02-16T16:03:57.452Z,6.30
2018-02-16T16:06:29.524Z,6.30
2018-02-16T16:11:46.103Z,7.67
2018-02-16T16:14:13.650Z,6.60
2018-02-16T16:16:42.064Z,5.90
2018-02-16T16:19:09.615Z,7.23
2018-02-16T16:21:37.162Z,6.00
2018-02-16T16:24:04.710Z,7.47
2018-02-16T16:26:33.098Z,6.70
2018-02-16T16:29:00.686Z,7.30
2018-02-16T16:31:28.266Z,5.73
2018-02-16T16:33:55.856Z,6.33
2018-02-16T16:36:24.302Z,7.13
2018-02-16T16:38:51.894Z,7.33
2018-02-16T16:41:20.344Z,7.30
2018-02-16T16:43:47.935Z,7.70
2018-02-16T16:46:16.375Z,9.30
2018-02-16T16:48:44.907Z,7.87
2018-02-16T16:51:12.604Z,7.60
2018-02-16T16:53:40.193Z,7.40
2018-02-16T16:56:07.738Z,5.83
2018-02-16T16:58:35.278Z,7.37
2018-02-16T17:01:03.567Z,6.70
2018-02-16T17:03:31.847Z,8.07
2018-02-16T17:06:00.238Z,7.23
2018-02-16T17:08:28.554Z,7.30
2018-02-16T17:10:56.936Z,6.80
2018-02-16T17:13:25.266Z,8.27
2018-02-16T17:15:53.187Z,7.50
2018-02-16T17:18:21.522Z,7.67
2018-02-16T17:20:50.034Z,8.07
2018-02-16T17:23:18.290Z,10.17
2018-02-16T17:25:46.630Z,7.70
2018-02-16T17:28:14.177Z,7.93
2018-02-16T17:30:41.724Z,8.37
2018-02-16T17:33:09.286Z,9.10
2018-02-16T17:35:36.863Z,9.47
2018-02-16T17:38:05.318Z,11.50
2018-02-16T17:40:32.869Z,12.77
2018-02-16T17:43:00.418Z,12.97
2018-02-16T17:45:27.967Z,11.00
2018-02-16T17:47:55.721Z,12.63
2018-02-16T17:50:24.187Z,10.50
2018-02-16T17:52:51.743Z,12.50
2018-02-16T17:55:19.292Z,10.67
2018-02-16T17:57:47.838Z,11.63
2018-02-16T18:00:17.807Z,12.60
2018-02-16T18:02:45.425Z,14.00
2018-02-16T18:05:12.973Z,13.80
2018-02-16T18:07:40.562Z,12.03
2018-02-16T18:10:08.114Z,12.63
2018-02-16T18:12:35.685Z,17.43
2018-02-16T18:15:03.231Z,13.50
2018-02-16T18:17:30.883Z,13.40
2018-02-16T18:19:59.051Z,14.33
2018-02-16T18:22:26.599Z,12.70
2018-02-16T18:24:54.142Z,12.77
2018-02-16T18:27:21.698Z,12.60
2018-02-16T18:29:49.254Z,13.87
2018-02-16T18:32:16.843Z,12.13
2018-02-16T18:34:44.422Z,11.13
2018-02-16T18:37:11.987Z,13.00
2018-02-16T18:39:39.541Z,11.57
2018-02-16T18:42:07.094Z,11.03
2018-02-16T18:44:35.464Z,10.70
2018-02-16T18:47:03.006Z,9.67
2018-02-16T18:49:30.550Z,11.20
2018-02-16T18:51:58.140Z,10.90
2018-02-16T18:54:25.678Z,9.63
2018-02-16T18:56:54.039Z,9.17
2018-02-16T18:59:22.310Z,9.53
2018-02-16T19:01:50.666Z,9.97
2018-02-16T19:04:18.998Z,11.43
2018-02-16T19:06:47.138Z,10.00
2018-02-16T19:09:14.695Z,11.43
2018-02-16T19:11:43.139Z,9.30
2018-02-16T19:14:11.395Z,10.30
2018-02-16T19:16:39.913Z,11.20
2018-02-16T19:19:08.286Z,12.37
2018-02-16T19:21:36.649Z,10.60
2018-02-16T19:24:04.230Z,10.37
2018-02-16T19:26:31.779Z,9.50
2018-02-16T19:28:59.369Z,11.67
2018-02-16T19:31:27.839Z,14.47
2018-02-16T19:33:56.211Z,11.53
2018-02-16T19:36:24.555Z,10.53
2018-02-16T19:38:52.107Z,10.33
2018-02-16T19:41:20.625Z,10.83
2018-02-16T19:43:48.903Z,8.93
2018-02-16T19:46:17.307Z,8.83
2018-02-16T19:48:45.560Z,10.03
2018-02-16T19:51:13.146Z,9.60
2018-02-16T19:53:40.694Z,8.63
2018-02-16T19:56:09.087Z,9.83
2018-02-16T19:58:36.630Z,9.40
2018-02-16T20:01:05.019Z,10.10
2018-02-16T20:03:32.571Z,10.90
2018-02-16T20:06:00.118Z,9.50
2018-02-16T20:08:28.459Z,12.83
2018-02-16T20:10:56.010Z,10.50
2018-02-16T20:13:23.558Z,9.40
2018-02-16T20:15:51.178Z,9.70
2018-02-16T20:18:19.091Z,10.23
2018-02-16T20:20:47.542Z,8.27
2018-02-16T20:23:15.095Z,9.80
2018-02-16T20:25:42.682Z,9.40
2018-02-16T20:28:10.235Z,11.10
2018-02-16T20:30:38.769Z,10.53
2018-02-16T20:33:07.102Z,10.23
2018-02-16T20:35:34.650Z,9.90
2018-02-16T20:38:02.252Z,11.47
2018-02-16T20:40:29.826Z,11.03
2018-02-16T20:42:57.388Z,11.30
2018-02-16T20:45:24.947Z,11.53
2018-02-16T20:47:52.505Z,8.90
2018-02-16T20:50:21.018Z,10.23
2018-02-16T20:52:48.579Z,11.50
2018-02-16T20:55:16.127Z,11.93
2018-02-16T20:57:43.675Z,10.30
2018-02-16T21:00:11.230Z,11.20
2018-02-16T21:02:38.826Z,11.00
2018-02-16T21:05:06.431Z,11.67
2018-02-16T21:07:33.979Z,11.97
2018-02-16T21:10:01.538Z,12.07
2018-02-16T21:12:29.091Z,14.07
2018-02-16T21:14:56.647Z,11.57
2018-02-16T21:17:24.202Z,10.93
2018-02-16T21:19:51.747Z,11.07
2018-02-16T21:22:19.297Z,13.03
2018-02-16T21:24:47.543Z,12.00
2018-02-16T21:27:15.094Z,11.97
2018-02-16T21:29:42.650Z,10.90
2018-02-16T21:32:10.250Z,11.63
2018-02-16T21:34:38.614Z,12.27
2018-02-16T21:37:07.010Z,11.57
2018-02-16T21:39:34.562Z,11.67
2018-02-16T21:42:02.162Z,12.03
2018-02-16T21:44:29.718Z,13.17
2018-02-16T21:46:58.207Z,12.50
2018-02-16T21:49:25.758Z,12.80
2018-02-16T21:51:53.311Z,12.67
2018-02-16T21:54:20.901Z,13.73
2018-02-16T21:56:48.466Z,11.55
2018-02-16T21:59:16.766Z,12.50
2018-02-16T22:01:44.321Z,13.17
2018-02-16T22:04:11.918Z,12.80
2018-02-16T22:06:39.496Z,12.23
2018-02-16T22:09:07.042Z,12.87
2018-02-16T22:11:34.595Z,13.30
2018-02-16T22:14:02.149Z,13.80
2018-02-16T22:16:29.705Z,13.20
2018-02-16T22:18:57.258Z,12.77
2018-02-16T22:21:24.831Z,13.40
2018-02-16T22:23:52.395Z,12.50
2018-02-16T22:26:19.994Z,12.18
2018-02-16T22:28:47.545Z,13.33
2018-02-16T22:31:15.109Z,15.73
2018-02-16T22:33:42.710Z,11.90
2018-02-16T22:36:11.123Z,13.90
2018-02-16T22:38:38.682Z,15.07
2018-02-16T22:41:07.090Z,14.03
2018-02-16T22:43:34.645Z,15.10
2018-02-16T22:46:03.071Z,14.90
2018-02-16T22:48:30.624Z,13.40
2018-02-16T22:50:59.136Z,13.50
2018-02-16T22:53:27.448Z,13.40
2018-02-16T22:55:55.815Z,13.37
2018-02-16T22:58:24.290Z,13.20
2018-02-16T23:00:51.885Z,13.50
2018-02-16T23:03:19.443Z,13.62
2018-02-16T23:05:47.989Z,14.75
2018-02-16T23:08:16.261Z,17.00
2018-02-16T23:10:43.869Z,14.18
2018-02-16T23:13:12.218Z,15.77
2018-02-16T23:15:39.794Z,15.23
2018-02-16T23:18:07.855Z,15.93
2018-02-16T23:20:35.420Z,14.45
2018-02-16T23:23:03.926Z,15.55
2018-02-16T23:25:31.473Z,14.30
2018-02-16T23:27:59.926Z,13.97
2018-02-16T23:30:27.487Z,14.35
2018-02-16T23:32:55.078Z,15.80
2018-02-16T23:35:22.659Z,16.47
2018-02-16T23:37:50.250Z,15.13
2018-02-16T23:40:18.079Z,16.70
2018-02-16T23:42:46.496Z,16.83
2018-02-16T23:45:14.064Z,14.17
2018-02-16T23:47:41.630Z,16.30
2018-02-16T23:50:09.232Z,14.80
2018-02-16T23:52:36.791Z,14.27
2018-02-16T23:55:04.446Z,14.98
2018-02-16T23:57:32.011Z,15.33
2018-02-16T23:59:59.608Z,14.33
